createdAt,value
2019-03-20T00:00:49.556Z,10.6
2019-03-20T00:02:50.354Z,9.1
2019-03-20T00:04:50.173Z,9.1
2019-03-20T00:06:50.302Z,8.7
2019-03-20T00:08:50.286Z,8.7
2019-03-20T00:10:50.095Z,11.0
2019-03-20T00:12:49.982Z,9.1
2019-03-20T00:14:49.941Z,10.2
2019-03-20T00:16:50.096Z,10.9
2019-03-20T00:18:50.013Z,10.9
2019-03-20T00:20:49.899Z,8.4
2019-03-20T00:22:49.721Z,8.6
2019-03-20T00:24:49.601Z,9.3
2019-03-20T00:26:49.678Z,9.3
2019-03-20T00:28:49.601Z,9.7
2019-03-20T00:30:49.551Z,7.6
2019-03-20T00:32:49.436Z,10.1
2019-03-20T00:35:00.241Z,10.1
2019-03-20T00:36:49.509Z,11.0
2019-03-20T00:38:49.485Z,7.8
2019-03-20T00:40:50.370Z,7.8
2019-03-20T00:42:50.321Z,9.5
2019-03-20T00:44:50.242Z,9.5
2019-03-20T00:46:50.218Z,8.4
2019-03-20T00:48:50.178Z,8.8
2019-03-20T00:50:50.098Z,11.1
2019-03-20T00:52:50.008Z,11.1
2019-03-20T00:54:49.854Z,7.6
2019-03-20T00:56:49.840Z,7.6
2019-03-20T00:58:49.810Z,10.1
2019-03-20T01:00:49.821Z,7.7
2019-03-20T01:02:49.678Z,7.6
2019-03-20T01:04:49.964Z,7.6
2019-03-20T01:06:50.132Z,9.2
2019-03-20T01:08:49.926Z,10.7
2019-03-20T01:10:49.790Z,9.4
2019-03-20T01:12:49.820Z,6.7
2019-03-20T01:14:49.723Z,6.7
2019-03-20T01:16:49.756Z,9.7
2019-03-20T01:18:49.604Z,10.2
2019-03-20T01:20:49.556Z,10.0
2019-03-20T01:22:50.421Z,15.9
2019-03-20T01:24:50.337Z,15.9
2019-03-20T01:26:50.378Z,11.3
2019-03-20T01:28:50.286Z,12.9
2019-03-20T01:30:50.137Z,7.9
2019-03-20T01:32:50.010Z,11.3
2019-03-20T01:34:50.315Z,11.3
2019-03-20T01:36:50.245Z,9.4
2019-03-20T01:38:50.223Z,7.5
2019-03-20T01:40:50.139Z,10.4
2019-03-20T01:42:50.035Z,11.9
2019-03-20T01:44:49.949Z,11.9
2019-03-20T01:46:49.890Z,7.6
2019-03-20T01:48:49.752Z,8.6
2019-03-20T01:50:49.564Z,7.4
2019-03-20T01:52:49.519Z,7.4
2019-03-20T01:54:50.375Z,13.0
2019-03-20T01:56:50.415Z,11.1
2019-03-20T01:58:50.281Z,10.1
2019-03-20T02:00:50.178Z,9.2
2019-03-20T02:02:50.074Z,9.2
2019-03-20T02:04:50.408Z,11.0
2019-03-20T02:06:50.397Z,9.5
2019-03-20T02:08:50.281Z,10.0
2019-03-20T02:10:50.176Z,10.0
2019-03-20T02:12:50.107Z,8.0
2019-03-20T02:14:50.150Z,10.3
2019-03-20T02:16:50.265Z,8.1
2019-03-20T02:18:50.185Z,8.1
2019-03-20T02:20:50.107Z,8.4
2019-03-20T02:22:50.051Z,8.4
2019-03-20T02:24:50.124Z,10.7
2019-03-20T02:26:50.186Z,5.8
2019-03-20T02:28:50.156Z,5.8
2019-03-20T02:30:50.199Z,7.6
2019-03-20T02:32:50.296Z,7.6
2019-03-20T02:34:49.579Z,7.1
2019-03-20T02:36:49.698Z,9.4
2019-03-20T02:38:49.696Z,8.2
2019-03-20T02:40:49.591Z,9.7
2019-03-20T02:42:49.670Z,9.7
2019-03-20T02:44:49.456Z,9.0
2019-03-20T02:46:49.485Z,8.2
2019-03-20T02:48:50.324Z,9.7
2019-03-20T02:50:50.288Z,9.7
2019-03-20T02:52:50.112Z,9.3
2019-03-20T02:54:49.932Z,8.0
2019-03-20T02:56:50.095Z,11.2
2019-03-20T02:58:50.112Z,8.6
2019-03-20T03:00:50.088Z,8.6
2019-03-20T03:02:50.055Z,8.7
2019-03-20T03:04:50.359Z,8.2
2019-03-20T03:06:50.382Z,8.0
2019-03-20T03:08:49.539Z,8.0
2019-03-20T03:10:49.457Z,11.2
2019-03-20T03:12:50.380Z,10.3
2019-03-20T03:14:50.376Z,9.1
2019-03-20T03:16:49.574Z,9.1
2019-03-20T03:18:49.525Z,8.6
2019-03-20T03:20:50.460Z,8.6
2019-03-20T03:22:49.571Z,12.3
2019-03-20T03:24:50.415Z,9.1
2019-03-20T03:26:49.497Z,9.1
2019-03-20T03:28:50.312Z,9.4
2019-03-20T03:30:50.239Z,9.4
2019-03-20T03:32:50.155Z,10.3
2019-03-20T03:34:49.456Z,8.4
2019-03-20T03:36:49.487Z,8.4
2019-03-20T03:38:49.526Z,10.7
2019-03-20T03:40:50.411Z,10.7
2019-03-20T03:42:50.344Z,9.3
2019-03-20T03:44:50.219Z,9.3
2019-03-20T03:46:50.232Z,9.9
2019-03-20T03:48:50.156Z,12.8
2019-03-20T03:50:50.025Z,10.0
2019-03-20T03:52:49.985Z,9.4
2019-03-20T03:54:49.928Z,9.4
2019-03-20T03:56:49.945Z,9.2
2019-03-20T03:58:49.824Z,9.2
2019-03-20T04:00:49.752Z,9.0
2019-03-20T04:02:49.687Z,9.5
2019-03-20T04:04:49.915Z,9.5
2019-03-20T04:06:49.902Z,10.7
2019-03-20T04:08:49.739Z,10.7
2019-03-20T04:10:49.699Z,10.9
2019-03-20T04:12:49.618Z,8.5
2019-03-20T04:14:49.608Z,13.2
2019-03-20T04:16:49.659Z,13.2
2019-03-20T04:18:49.679Z,8.1
2019-03-20T04:20:49.611Z,9.9
2019-03-20T04:22:49.518Z,9.9
2019-03-20T04:24:50.422Z,9.4
2019-03-20T04:26:49.524Z,9.4
2019-03-20T04:28:49.535Z,14.6
2019-03-20T04:30:50.397Z,10.4
2019-03-20T04:32:50.243Z,10.4
2019-03-20T04:34:49.538Z,11.8
2019-03-20T04:36:49.718Z,11.0
2019-03-20T04:38:49.620Z,9.6
2019-03-20T04:40:49.438Z,11.4
2019-03-20T04:42:50.359Z,13.1
2019-03-20T04:44:50.352Z,13.1
2019-03-20T04:46:49.481Z,12.0
2019-03-20T04:48:50.331Z,10.1
2019-03-20T04:50:50.317Z,12.5
2019-03-20T04:52:50.220Z,9.7
2019-03-20T04:54:50.159Z,9.7
2019-03-20T04:56:50.153Z,11.8
2019-03-20T04:58:50.102Z,12.8
2019-03-20T05:00:49.945Z,11.7
2019-03-20T05:02:49.833Z,11.7
2019-03-20T05:04:50.096Z,12.7
2019-03-20T05:06:58.161Z,12.1
2019-03-20T05:08:50.295Z,11.0
2019-03-20T05:10:50.268Z,10.2
2019-03-20T05:12:50.179Z,10.2
2019-03-20T05:14:50.126Z,13.4
2019-03-20T05:16:50.099Z,11.9
2019-03-20T05:18:49.962Z,10.2
2019-03-20T05:20:49.957Z,10.2
2019-03-20T05:22:49.825Z,10.4
2019-03-20T05:24:49.777Z,10.3
2019-03-20T05:26:49.447Z,10.7
2019-03-20T05:28:50.363Z,10.7
2019-03-20T05:30:50.319Z,10.7
2019-03-20T05:32:50.180Z,7.3
2019-03-20T05:34:50.405Z,7.3
2019-03-20T05:36:50.390Z,7.9
2019-03-20T05:38:50.324Z,11.6
2019-03-20T05:40:50.195Z,8.1
2019-03-20T05:42:50.054Z,8.1
2019-03-20T05:44:49.934Z,12.8
2019-03-20T05:46:49.986Z,11.7
2019-03-20T05:48:49.888Z,10.9
2019-03-20T05:50:49.810Z,11.5
2019-03-20T05:52:49.739Z,11.5
2019-03-20T05:54:49.690Z,13.4
2019-03-20T05:56:49.796Z,22.4
2019-03-20T05:58:49.680Z,21.3
2019-03-20T06:00:49.535Z,21.3
2019-03-20T06:02:49.479Z,13.4
2019-03-20T06:04:49.746Z,12.1
2019-03-20T06:06:49.843Z,10.8
2019-03-20T06:08:49.784Z,12.2
2019-03-20T06:10:49.752Z,14.4
2019-03-20T06:12:49.651Z,14.4
2019-03-20T06:14:49.552Z,10.8
2019-03-20T06:16:49.617Z,10.8
2019-03-20T06:18:49.532Z,11.8
2019-03-20T06:20:49.506Z,11.8
2019-03-20T06:22:50.343Z,15.3
2019-03-20T06:24:50.236Z,9.8
2019-03-20T06:26:50.161Z,13.6
2019-03-20T06:28:50.165Z,13.6
2019-03-20T06:30:50.056Z,12.5
2019-03-20T06:32:50.033Z,13.4
2019-03-20T06:34:50.298Z,12.1
2019-03-20T06:36:49.729Z,12.0
2019-03-20T06:38:49.619Z,12.0
2019-03-20T06:40:50.434Z,12.2
2019-03-20T06:42:49.423Z,11.9
2019-03-20T06:44:50.376Z,8.9
2019-03-20T06:46:50.410Z,9.8
2019-03-20T06:48:50.264Z,9.8
2019-03-20T06:50:50.210Z,14.3
2019-03-20T06:52:50.090Z,16.2
2019-03-20T06:54:50.040Z,15.9
2019-03-20T06:56:50.049Z,15.9
2019-03-20T06:58:49.990Z,15.9
2019-03-20T07:00:49.901Z,11.1
2019-03-20T07:02:49.910Z,11.1
2019-03-20T07:04:50.345Z,9.4
2019-03-20T07:06:49.548Z,9.4
2019-03-20T07:08:49.650Z,13.4
2019-03-20T07:10:49.752Z,13.4
2019-03-20T07:12:49.906Z,15.2
2019-03-20T07:14:49.928Z,13.6
2019-03-20T07:16:50.186Z,13.6
2019-03-20T07:18:50.399Z,10.6
2019-03-20T07:20:50.421Z,10.6
2019-03-20T07:22:49.592Z,10.6
2019-03-20T07:24:49.684Z,10.1
2019-03-20T07:26:49.814Z,9.1
2019-03-20T07:28:49.917Z,9.1
2019-03-20T07:30:49.954Z,11.1
2019-03-20T07:32:50.063Z,11.7
2019-03-20T07:34:50.379Z,12.0
2019-03-20T07:36:49.670Z,10.4
2019-03-20T07:38:49.723Z,10.4
2019-03-20T07:40:49.721Z,12.8
2019-03-20T07:42:49.751Z,10.5
2019-03-20T07:44:49.850Z,9.8
2019-03-20T07:46:50.109Z,9.8
2019-03-20T07:48:50.222Z,9.1
2019-03-20T07:50:50.245Z,7.9
2019-03-20T07:52:50.319Z,9.9
2019-03-20T07:54:50.340Z,10.5
2019-03-20T07:56:49.642Z,10.5
2019-03-20T07:58:49.620Z,9.7
2019-03-20T08:00:49.692Z,11.0
2019-03-20T08:02:49.671Z,11.1
2019-03-20T08:04:50.122Z,11.1
2019-03-20T08:06:50.195Z,9.9
2019-03-20T08:08:50.301Z,9.9
2019-03-20T08:10:49.446Z,10.0
2019-03-20T08:12:49.515Z,9.7
2019-03-20T08:14:49.498Z,9.7
2019-03-20T08:16:49.777Z,10.0
2019-03-20T08:18:49.752Z,10.0
2019-03-20T08:20:49.786Z,16.3
2019-03-20T08:22:49.962Z,8.6
2019-03-20T08:24:50.019Z,8.6
2019-03-20T08:26:50.365Z,10.8
2019-03-20T08:28:50.380Z,10.8
2019-03-20T08:30:50.414Z,10.4
2019-03-20T08:32:49.457Z,13.1
2019-03-20T08:34:49.856Z,8.1
2019-03-20T08:36:50.046Z,8.1
2019-03-20T08:38:50.101Z,9.8
2019-03-20T08:40:50.200Z,9.3
2019-03-20T08:42:50.243Z,13.8
2019-03-20T08:44:50.338Z,13.1
2019-03-20T08:46:49.446Z,13.1
2019-03-20T08:48:49.507Z,11.3
2019-03-20T08:50:49.578Z,9.2
2019-03-20T08:52:49.701Z,10.2
2019-03-20T08:54:49.780Z,10.2
2019-03-20T08:56:49.919Z,10.1
2019-03-20T08:58:49.911Z,9.8
2019-03-20T09:00:49.954Z,9.4
2019-03-20T09:02:50.180Z,9.4
2019-03-20T09:04:49.685Z,9.2
2019-03-20T09:06:49.842Z,10.1
2019-03-20T09:08:49.970Z,13.0
2019-03-20T09:10:49.987Z,9.1
2019-03-20T09:12:50.074Z,9.1
2019-03-20T09:14:50.143Z,9.0
2019-03-20T09:16:50.392Z,10.3
2019-03-20T09:18:50.399Z,10.3
2019-03-20T09:20:49.475Z,10.3
2019-03-20T09:22:49.573Z,11.1
2019-03-20T09:24:49.793Z,9.7
2019-03-20T09:26:49.951Z,10.5
2019-03-20T09:28:50.005Z,8.0
2019-03-20T09:30:50.055Z,8.0
2019-03-20T09:32:50.095Z,10.2
2019-03-20T09:34:49.447Z,10.2
2019-03-20T09:36:49.661Z,11.3
2019-03-20T09:38:49.639Z,9.1
2019-03-20T09:40:49.639Z,9.1
2019-03-20T09:42:50.109Z,26.5
2019-03-20T09:44:50.177Z,9.6
2019-03-20T09:46:50.272Z,8.6
2019-03-20T09:48:50.352Z,9.5
2019-03-20T09:50:49.475Z,9.5
2019-03-20T09:52:50.119Z,11.3
2019-03-20T09:54:50.260Z,11.7
2019-03-20T09:56:49.475Z,7.6
2019-03-20T09:58:49.528Z,10.7
2019-03-20T10:00:49.531Z,9.3
2019-03-20T10:02:49.593Z,9.3
2019-03-20T10:04:49.941Z,10.7
2019-03-20T10:06:50.103Z,7.8
2019-03-20T10:08:53.933Z,8.6
2019-03-20T10:10:49.621Z,8.6
2019-03-20T10:12:49.796Z,6.5
2019-03-20T10:14:49.879Z,9.9
2019-03-20T10:16:50.087Z,4.8
2019-03-20T10:18:50.159Z,5.3
2019-03-20T10:20:50.208Z,7.0
2019-03-20T10:22:50.334Z,7.0
2019-03-20T10:24:50.445Z,5.0
2019-03-20T10:26:49.635Z,8.6
2019-03-20T10:28:49.722Z,6.1
2019-03-20T10:30:49.816Z,6.1
2019-03-20T10:32:49.901Z,7.1
2019-03-20T10:34:50.233Z,10.9
2019-03-20T10:36:50.435Z,6.4
2019-03-20T10:38:50.444Z,6.4
2019-03-20T10:40:50.059Z,9.1
2019-03-20T10:42:50.058Z,9.1
2019-03-20T10:44:50.107Z,6.4
2019-03-20T10:46:50.243Z,8.3
2019-03-20T10:48:50.380Z,8.3
2019-03-20T10:50:49.469Z,9.2
2019-03-20T10:52:49.631Z,5.9
2019-03-20T10:54:49.652Z,5.8
2019-03-20T10:56:49.848Z,5.8
2019-03-20T10:58:50.078Z,5.3
2019-03-20T11:00:50.140Z,5.3
2019-03-20T11:02:50.204Z,4.0
2019-03-20T11:04:49.756Z,6.1
2019-03-20T11:06:49.889Z,6.6
2019-03-20T11:08:50.027Z,5.4
2019-03-20T11:10:50.058Z,5.4
2019-03-20T11:12:50.138Z,5.9
2019-03-20T11:14:50.232Z,5.7
2019-03-20T11:16:49.451Z,5.7
2019-03-20T11:18:49.515Z,6.2
2019-03-20T11:20:49.634Z,6.2
2019-03-20T11:22:49.616Z,5.2
2019-03-20T11:24:49.951Z,5.7
2019-03-20T11:26:50.157Z,5.3
2019-03-20T11:28:50.268Z,5.3
2019-03-20T11:30:50.249Z,5.1
2019-03-20T11:32:50.342Z,8.2
2019-03-20T11:34:49.571Z,7.1
2019-03-20T11:36:49.774Z,7.1
2019-03-20T11:38:49.785Z,6.6
2019-03-20T11:40:49.918Z,6.1
2019-03-20T11:42:50.032Z,5.5
2019-03-20T11:44:50.164Z,7.6
2019-03-20T11:46:50.403Z,7.6
2019-03-20T11:48:50.376Z,7.5
2019-03-20T11:50:50.397Z,4.8
2019-03-20T11:52:49.478Z,5.2
2019-03-20T11:54:49.490Z,5.2
2019-03-20T11:56:49.613Z,6.6
2019-03-20T11:58:49.586Z,6.6
2019-03-20T12:00:49.639Z,8.0
2019-03-20T12:02:49.603Z,7.4
2019-03-20T12:04:50.002Z,14.2
2019-03-20T12:06:50.187Z,14.2
2019-03-20T12:08:50.252Z,8.5
2019-03-20T12:10:50.229Z,9.1
2019-03-20T12:12:50.254Z,10.0
2019-03-20T12:14:50.275Z,4.4
2019-03-20T12:16:49.518Z,4.4
2019-03-20T12:18:50.473Z,4.8
2019-03-20T12:20:49.544Z,5.9
2019-03-20T12:22:49.510Z,6.5
2019-03-20T12:24:49.645Z,6.5
2019-03-20T12:26:49.844Z,6.1
2019-03-20T12:28:49.831Z,6.1
2019-03-20T12:30:49.873Z,5.7
2019-03-20T12:32:49.966Z,5.1
2019-03-20T12:34:50.244Z,5.1
2019-03-20T12:36:49.577Z,6.6
2019-03-20T12:38:49.588Z,4.0
2019-03-20T12:40:49.760Z,4.5
2019-03-20T12:42:49.826Z,5.0
2019-03-20T12:44:49.927Z,5.0
2019-03-20T12:46:50.161Z,4.2
2019-03-20T12:48:50.251Z,5.0
2019-03-20T12:50:50.263Z,5.7
2019-03-20T12:52:50.246Z,5.7
2019-03-20T12:54:50.193Z,5.2
2019-03-20T12:56:49.482Z,5.2
2019-03-20T12:58:49.502Z,6.3
2019-03-20T13:02:49.533Z,5.9
2019-03-20T13:04:49.967Z,6.6
2019-03-20T13:06:50.092Z,4.8
2019-03-20T13:08:50.114Z,4.7
2019-03-20T13:10:50.121Z,5.5
2019-03-20T13:12:50.187Z,6.0
2019-03-20T13:14:50.121Z,4.8
2019-03-20T13:16:50.325Z,4.8
2019-03-20T13:18:50.438Z,5.3
2019-03-20T13:20:49.610Z,5.6
2019-03-20T13:22:49.625Z,4.4
2019-03-20T13:24:49.511Z,4.4
2019-03-20T13:26:49.665Z,5.3
2019-03-20T13:28:49.786Z,5.7
2019-03-20T13:30:49.848Z,6.5
2019-03-20T13:32:49.872Z,4.7
2019-03-20T13:34:50.284Z,4.7
2019-03-20T13:36:50.357Z,5.3
2019-03-20T13:38:49.511Z,5.7
2019-03-20T13:40:49.612Z,6.0
2019-03-20T13:42:49.669Z,6.0
2019-03-20T13:44:49.652Z,5.5
2019-03-20T13:46:49.831Z,4.0
2019-03-20T13:48:49.827Z,4.5
2019-03-20T13:50:49.961Z,4.1
2019-03-20T13:52:50.064Z,4.1
2019-03-20T13:54:49.852Z,4.5
2019-03-20T13:56:49.571Z,4.5
2019-03-20T13:58:52.114Z,5.8
2019-03-20T14:00:49.922Z,6.5
2019-03-20T14:02:50.362Z,6.5
2019-03-20T14:04:50.100Z,4.5
2019-03-20T14:06:49.601Z,11.0
2019-03-20T14:08:49.952Z,4.5
2019-03-20T14:10:50.721Z,4.5
2019-03-20T14:12:49.619Z,3.8
2019-03-20T14:14:50.175Z,3.8
2019-03-20T14:16:49.961Z,4.3
2019-03-20T14:18:49.496Z,4.3
2019-03-20T14:20:50.099Z,6.3
2019-03-20T14:22:49.498Z,8.7
2019-03-20T14:24:49.810Z,4.8
2019-03-20T14:26:50.199Z,7.4
2019-03-20T14:28:50.343Z,5.4
2019-03-20T14:30:49.660Z,5.4
2019-03-20T14:32:49.806Z,4.0
2019-03-20T14:34:50.405Z,3.8
2019-03-20T14:36:49.872Z,3.9
2019-03-20T14:38:50.076Z,3.9
2019-03-20T14:40:50.210Z,5.4
2019-03-20T14:42:50.311Z,5.1
2019-03-20T14:44:51.670Z,5.0
2019-03-20T14:46:50.017Z,15.4
2019-03-20T14:48:50.047Z,15.4
2019-03-20T14:50:50.155Z,8.3
2019-03-20T14:52:50.322Z,3.9
2019-03-20T14:54:49.755Z,3.7
2019-03-20T14:56:49.958Z,3.7
2019-03-20T14:58:50.127Z,5.6
2019-03-20T15:00:50.161Z,5.6
2019-03-20T15:02:50.142Z,6.2
2019-03-20T15:04:49.507Z,4.4
2019-03-20T15:06:49.673Z,6.2
2019-03-20T15:08:49.747Z,6.2
2019-03-20T15:10:49.823Z,12.5
2019-03-20T15:12:49.870Z,13.0
2019-03-20T15:14:49.943Z,13.0
2019-03-20T15:16:50.229Z,8.2
2019-03-20T15:18:50.290Z,8.2
2019-03-20T15:20:50.288Z,4.4
2019-03-20T15:22:50.395Z,9.4
2019-03-20T15:24:50.396Z,11.2
2019-03-20T15:26:49.650Z,11.2
2019-03-20T15:28:49.622Z,4.9
2019-03-20T15:30:49.757Z,4.9
2019-03-20T15:32:49.802Z,9.6
2019-03-20T15:34:50.271Z,46.6
2019-03-20T15:36:50.437Z,46.6
2019-03-20T15:38:49.514Z,7.1
2019-03-20T15:40:56.026Z,7.1
2019-03-20T15:42:49.504Z,4.1
2019-03-20T15:44:49.695Z,6.5
2019-03-20T15:46:49.804Z,6.5
2019-03-20T15:48:49.798Z,10.9
2019-03-20T15:50:49.823Z,8.7
2019-03-20T15:52:49.880Z,4.6
2019-03-20T15:54:49.917Z,6.1
2019-03-20T15:56:50.412Z,6.1
2019-03-20T15:58:49.718Z,4.4
2019-03-20T16:00:49.795Z,3.4
2019-03-20T16:02:49.824Z,6.0
2019-03-20T16:04:50.253Z,6.0
2019-03-20T16:06:50.316Z,6.1
2019-03-20T16:08:50.244Z,18.9
2019-03-20T16:10:50.227Z,12.3
2019-03-20T16:12:50.429Z,6.2
2019-03-20T16:14:50.401Z,6.2
2019-03-20T16:16:50.358Z,5.3
2019-03-20T16:18:50.400Z,4.4
2019-03-20T16:20:49.540Z,4.2
2019-03-20T16:22:49.696Z,4.3
2019-03-20T16:24:49.787Z,4.3
2019-03-20T16:26:50.046Z,6.0
2019-03-20T16:28:50.066Z,5.8
2019-03-20T16:30:50.252Z,5.2
2019-03-20T16:32:50.408Z,4.8
2019-03-20T16:34:49.987Z,4.8
2019-03-20T16:36:50.135Z,5.7
2019-03-20T16:38:50.160Z,4.2
2019-03-20T16:40:49.433Z,7.6
2019-03-20T16:42:49.514Z,7.6
2019-03-20T16:44:49.520Z,5.9
2019-03-20T16:46:49.668Z,6.7
2019-03-20T16:48:49.729Z,4.0
2019-03-20T16:50:49.896Z,5.7
2019-03-20T16:52:50.113Z,5.8
2019-03-20T16:54:50.255Z,5.8
2019-03-20T16:56:50.411Z,8.6
2019-03-20T16:58:49.566Z,9.8
2019-03-20T17:00:49.703Z,9.8
2019-03-20T17:02:49.756Z,5.0
2019-03-20T17:04:50.011Z,7.8
2019-03-20T17:06:50.297Z,7.2
2019-03-20T17:08:49.521Z,7.1
2019-03-20T17:10:49.598Z,5.8
2019-03-20T17:12:49.898Z,5.8
2019-03-20T17:14:49.865Z,4.2
2019-03-20T17:16:50.145Z,5.9
2019-03-20T17:18:50.283Z,6.0
2019-03-20T17:20:49.450Z,6.4
2019-03-20T17:22:49.646Z,6.4
2019-03-20T17:24:49.777Z,5.8
2019-03-20T17:26:50.047Z,6.9
2019-03-20T17:28:50.273Z,8.2
2019-03-20T17:30:50.377Z,8.2
2019-03-20T17:32:49.633Z,7.9
2019-03-20T17:34:50.126Z,6.2
2019-03-20T17:36:50.284Z,6.2
2019-03-20T17:38:50.375Z,8.5
2019-03-20T17:40:49.472Z,8.5
2019-03-20T17:42:49.607Z,10.7
2019-03-20T17:44:49.788Z,7.2
2019-03-20T17:46:50.041Z,6.7
2019-03-20T17:48:49.991Z,7.6
2019-03-20T17:50:50.091Z,7.6
2019-03-20T17:52:50.286Z,8.4
2019-03-20T17:54:50.325Z,8.4
2019-03-20T17:56:49.491Z,8.2
2019-03-20T17:58:49.603Z,11.2
2019-03-20T18:00:49.755Z,11.2
2019-03-20T18:02:49.961Z,15.7
2019-03-20T18:04:50.434Z,15.7
2019-03-20T18:06:49.701Z,12.1
2019-03-20T18:08:49.858Z,10.3
2019-03-20T18:10:49.991Z,6.4
2019-03-20T18:12:50.106Z,6.4
2019-03-20T18:14:50.142Z,7.5
2019-03-20T18:16:50.393Z,13.1
2019-03-20T18:18:49.568Z,7.8
2019-03-20T18:20:49.475Z,7.8
2019-03-20T18:22:49.744Z,10.2
2019-03-20T18:24:49.882Z,9.3
2019-03-20T18:26:50.155Z,9.3
2019-03-20T18:28:50.229Z,16.3
2019-03-20T18:30:50.320Z,16.3
2019-03-20T18:32:49.495Z,12.3
2019-03-20T18:34:49.960Z,12.7
2019-03-20T18:36:50.133Z,16.2
2019-03-20T18:38:50.146Z,16.2
2019-03-20T18:40:50.156Z,13.1
2019-03-20T18:42:49.466Z,12.8
2019-03-20T18:44:49.478Z,11.1
2019-03-20T18:46:49.778Z,9.3
2019-03-20T18:48:49.864Z,9.3
2019-03-20T18:50:49.908Z,12.5
2019-03-20T18:52:49.938Z,12.5
2019-03-20T18:54:49.981Z,9.0
2019-03-20T18:56:50.178Z,10.6
2019-03-20T18:58:49.462Z,10.6
2019-03-20T19:00:50.416Z,9.7
2019-03-20T19:02:49.476Z,8.3
2019-03-20T19:04:50.226Z,11.4
2019-03-20T19:06:49.510Z,9.3
2019-03-20T19:08:49.593Z,9.3
2019-03-20T19:10:50.030Z,7.7
2019-03-20T19:12:50.417Z,7.6
2019-03-20T19:14:49.508Z,7.6
2019-03-20T19:16:49.819Z,7.9
2019-03-20T19:18:49.931Z,7.9
2019-03-20T19:20:50.019Z,7.9
2019-03-20T19:22:50.164Z,8.4
2019-03-20T19:24:50.251Z,9.8
2019-03-20T19:26:49.432Z,11.0
2019-03-20T19:28:49.515Z,11.0
2019-03-20T19:30:49.681Z,8.9
2019-03-20T19:32:49.744Z,7.3
2019-03-20T19:34:50.151Z,7.3
2019-03-20T19:38:49.811Z,12.5
2019-03-20T19:40:49.897Z,8.3
2019-03-20T19:42:49.911Z,6.3
2019-03-20T19:44:49.994Z,8.2
2019-03-20T19:46:50.205Z,8.2
2019-03-20T19:48:50.330Z,9.6
2019-03-20T19:50:50.373Z,7.7
2019-03-20T19:52:50.417Z,9.0
2019-03-20T19:54:50.442Z,9.0
2019-03-20T19:56:49.739Z,8.3
2019-03-20T19:58:49.801Z,8.0
2019-03-20T20:00:49.907Z,8.0
2019-03-20T20:02:50.067Z,8.0
2019-03-20T20:04:49.450Z,7.2
2019-03-20T20:06:49.633Z,10.1
2019-03-20T20:08:49.660Z,8.5
2019-03-20T20:10:49.722Z,8.6
2019-03-20T20:12:49.831Z,10.2
2019-03-20T20:14:49.865Z,10.2
2019-03-20T20:16:50.052Z,11.2
2019-03-20T20:18:50.212Z,11.2
2019-03-20T20:20:50.349Z,13.7
2019-03-20T20:22:50.414Z,9.8
2019-03-20T20:24:50.413Z,9.8
2019-03-20T20:26:49.587Z,10.7
2019-03-20T20:28:49.702Z,12.1
2019-03-20T20:30:49.773Z,7.1
2019-03-20T20:32:49.946Z,7.1
2019-03-20T20:34:49.562Z,8.6
2019-03-20T20:36:49.846Z,8.1
2019-03-20T20:38:50.939Z,8.1
2019-03-20T20:40:50.153Z,9.8
2019-03-20T20:42:50.315Z,9.2
2019-03-20T20:44:50.307Z,9.2
2019-03-20T20:46:49.633Z,8.1
2019-03-20T20:48:49.664Z,9.1
2019-03-20T20:50:49.730Z,10.7
2019-03-20T20:52:49.824Z,11.7
2019-03-20T20:54:49.814Z,11.7
2019-03-20T20:56:50.063Z,7.9
2019-03-20T20:58:50.111Z,6.3
2019-03-20T21:00:50.216Z,8.3
2019-03-20T21:02:50.399Z,11.7
2019-03-20T21:04:49.852Z,11.7
2019-03-20T21:06:50.137Z,11.7
2019-03-20T21:08:50.171Z,9.9
2019-03-20T21:10:50.203Z,6.8
2019-03-20T21:12:55.930Z,6.8
2019-03-20T21:14:49.653Z,7.5
2019-03-20T21:16:49.824Z,9.8
2019-03-20T21:18:49.931Z,10.8
2019-03-20T21:20:49.941Z,12.2
2019-03-20T21:22:49.998Z,12.2
2019-03-20T21:24:50.089Z,10.3
2019-03-20T21:26:50.351Z,7.9
2019-03-20T21:28:50.357Z,8.5
2019-03-20T21:30:50.415Z,8.5
2019-03-20T21:32:49.441Z,7.5
2019-03-20T21:34:49.859Z,10.5
2019-03-20T21:36:50.099Z,7.7
2019-03-20T21:38:51.354Z,8.6
2019-03-20T21:40:49.588Z,8.6
2019-03-20T21:42:49.718Z,9.7
2019-03-20T21:44:49.754Z,9.7
2019-03-20T21:46:49.981Z,11.2
2019-03-20T21:48:50.056Z,13.8
2019-03-20T21:50:50.192Z,7.2
2019-03-20T21:52:50.084Z,7.2
2019-03-20T21:54:50.287Z,8.6
2019-03-20T21:56:50.216Z,8.5
2019-03-20T21:58:50.175Z,8.5
2019-03-20T22:00:50.213Z,7.0
2019-03-20T22:02:50.116Z,7.0
2019-03-20T22:04:49.482Z,8.7
2019-03-20T22:06:49.743Z,11.0
2019-03-20T22:08:49.480Z,9.3
2019-03-20T22:10:49.596Z,9.3
2019-03-20T22:12:49.714Z,8.9
2019-03-20T22:14:49.828Z,7.4
2019-03-20T22:16:49.980Z,8.3
2019-03-20T22:18:50.013Z,8.4
2019-03-20T22:20:50.334Z,8.4
2019-03-20T22:22:50.314Z,8.1
2019-03-20T22:24:50.388Z,6.8
2019-03-20T22:26:49.625Z,9.6
2019-03-20T22:28:50.395Z,9.4
2019-03-20T22:30:50.417Z,9.4
2019-03-20T22:32:49.602Z,9.2
2019-03-20T22:34:50.031Z,8.8
2019-03-20T22:36:50.218Z,6.5
2019-03-20T22:38:50.124Z,6.5
2019-03-20T22:40:50.026Z,7.7
2019-03-20T22:42:49.936Z,8.5
2019-03-20T22:44:49.783Z,9.8
2019-03-20T22:46:49.906Z,9.8
2019-03-20T22:48:49.784Z,9.0
2019-03-20T22:50:49.555Z,8.9
2019-03-20T22:52:49.470Z,8.9
2019-03-20T22:54:50.311Z,7.0
2019-03-20T22:56:50.289Z,7.2
2019-03-20T22:58:50.230Z,7.2
2019-03-20T23:00:50.105Z,7.3
2019-03-20T23:02:50.043Z,9.8
2019-03-20T23:04:50.391Z,8.0
2019-03-20T23:06:49.566Z,7.4
2019-03-20T23:08:49.477Z,9.2
2019-03-20T23:10:49.467Z,9.2
2019-03-20T23:12:50.327Z,8.8
2019-03-20T23:14:50.204Z,9.8
2019-03-20T23:16:50.216Z,6.9
2019-03-20T23:18:50.070Z,6.9
2019-03-20T23:20:49.942Z,10.3
2019-03-20T23:22:49.829Z,6.6
2019-03-20T23:24:49.704Z,6.5
2019-03-20T23:26:49.879Z,12.0
2019-03-20T23:28:49.783Z,12.0
2019-03-20T23:30:49.686Z,6.4
2019-03-20T23:32:49.638Z,6.4
2019-03-20T23:34:49.909Z,7.7
2019-03-20T23:36:49.939Z,10.0
2019-03-20T23:38:49.875Z,10.0
2019-03-20T23:40:49.823Z,8.0
2019-03-20T23:42:49.724Z,8.7
2019-03-20T23:44:49.637Z,8.6
2019-03-20T23:46:49.660Z,10.3
2019-03-20T23:48:49.689Z,10.3
2019-03-20T23:50:49.615Z,10.7
2019-03-20T23:52:49.487Z,10.7
2019-03-20T23:54:50.313Z,10.6
2019-03-20T23:56:50.285Z,10.6
2019-03-20T23:58:50.101Z,7.8
